Terminal Aerodrome Forecast
Issued by NWS

Home | Current Version | Previous Version | Text Only | Print | Product List | Glossary On
Versions: 1 2 3 4 5 6 7 8 9 10 11 12 13 14 15 16 17 18 19 20 21 22 23 24 25
073
FTUS43 KBIS 061120
TAFJMS
TAF
KJMS 061120Z 0612/0712 30028G40KT 1/2SM SN BLSN OVC008
     FM061600 30028G41KT 2SM -SN BLSN OVC010
     FM061900 30029G42KT 3SM BLSN VCSH OVC010
     FM070300 30025G35KT 4SM BLSN OVC050=

USA.gov is the U.S. government's official web portal to all federal, state and local government web resources and services.